Oncle Paul — GCQV — position and weather

sailwx.info

Track history (hours):
 
Tides and Currents Weather Stations Pressure Air Temp Water Temp Dewpoint Dewpoint Depression Visibility Wind Speed Wind Dir Waves Ship Positions

Oncle Paul

Last reported at 2017-Sep-15 10:24 UTC. Time now 2017-Sep-20 18:37 UTC.
Position N 36°58' E 025°10'.

Length 34 m.

Type: Pleasure craft. MMSI: 232996000.

Date/timePositionNaut miles runAvg speedWind from/ knotsBaromVisibWave heightAir tempDewpointWater temp
2017-Sep-15 10:24N 36°58' E 025°10'4 9.1
2017-Sep-15 09:56N 36°59' E 025°15'4 9.5
2017-Sep-15 09:30N 37°03' E 025°17'5 9.9
2017-Sep-15 09:00N 37°08' E 025°18'5 9.4
2017-Sep-15 08:30N 37°13' E 025°19'5 9.3
2017-Sep-15 07:59N 37°18' E 025°19'5 9.6
2017-Sep-15 07:30N 37°22' E 025°19'3 4.2
2017-Sep-15 06:50N 37°25' E 025°19'0 0.0
2017-Sep-15 06:29N 37°25' E 025°19'0 0.0
2017-Sep-15 05:59N 37°25' E 025°19'0 0.0
2017-Sep-15 05:23N 37°25' E 025°19'0 0.0
2017-Sep-15 04:56N 37°25' E 025°19'0 0.0
2017-Sep-15 04:02N 37°25' E 025°19'0 0.0
2017-Sep-15 03:53N 37°25' E 025°19'0 0.0
2017-Sep-15 03:23N 37°25' E 025°19'0 0.0
2017-Sep-15 01:41N 37°25' E 025°19'0 0.0
2017-Sep-15 01:29N 37°25' E 025°19'0 0.0
2017-Sep-15 00:56N 37°25' E 025°19'0 0.0
2017-Sep-15 00:23N 37°25' E 025°19'0 0.0
2017-Sep-14 23:44N 37°25' E 025°19'0 0.0
2017-Sep-14 23:23N 37°25' E 025°19'0 0.0
2017-Sep-14 22:59N 37°25' E 025°19'0 0.0
2017-Sep-14 22:26N 37°25' E 025°19'0 0.0
2017-Sep-14 21:50N 37°25' E 025°19'0 0.1
2017-Sep-14 21:29N 37°25' E 025°19'0 0.0
2017-Sep-14 20:59N 37°25' E 025°19'0 0.0
2017-Sep-14 20:23N 37°25' E 025°19'0 0.0
2017-Sep-14 19:53N 37°25' E 025°19'0 0.0
2017-Sep-14 19:23N 37°25' E 025°19'0 0.0
2017-Sep-14 18:59N 37°25' E 025°19'0 0.0
2017-Sep-14 18:29N 37°25' E 025°19'0 0.0
2017-Sep-14 17:59N 37°25' E 025°19'0 0.0
2017-Sep-14 17:23N 37°25' E 025°19'0 0.0
2017-Sep-14 16:35N 37°25' E 025°19'0 0.1
2017-Sep-14 16:23N 37°25' E 025°19'0 0.0
2017-Sep-14 15:59N 37°25' E 025°19'2 3.4
2017-Sep-14 15:29N 37°23' E 025°19'3 7.1
2017-Sep-14 15:00N 37°22' E 025°15'1 1.0
2017-Sep-14 14:26N 37°23' E 025°14'0 0.0
2017-Sep-14 13:59N 37°23' E 025°14'0 0.0
2017-Sep-14 13:29N 37°23' E 025°14'0 0.0
2017-Sep-14 12:47N 37°23' E 025°14'0 0.0
2017-Sep-14 12:29N 37°23' E 025°14'0 0.0
2017-Sep-14 11:59N 37°23' E 025°14'0 0.0
2017-Sep-14 11:26N 37°23' E 025°14'0 0.0
2017-Sep-14 10:47N 37°23' E 025°14'0 0.0
2017-Sep-14 10:23N 37°23' E 025°14'0 0.0
2017-Sep-14 09:59N 37°23' E 025°14'0 0.0
2017-Sep-14 09:26N 37°23' E 025°14'0 0.0
2017-Sep-14 08:56N 37°23' E 025°14'0 0.0
2017-Sep-14 08:26N 37°23' E 025°14'0 0.0
2017-Sep-14 07:59N 37°23' E 025°14'0 0.0
2017-Sep-14 06:50N 37°23' E 025°14'0 0.0
2017-Sep-14 06:29N 37°23' E 025°14'0 0.0
2017-Sep-14 05:53N 37°23' E 025°14'0 0.0
2017-Sep-14 05:26N 37°23' E 025°14'0 0.0
2017-Sep-14 04:53N 37°23' E 025°14'0 0.0
2017-Sep-14 04:14N 37°23' E 025°14'0 0.0
2017-Sep-14 03:56N 37°23' E 025°14'0 0.0
2017-Sep-14 02:20N 37°23' E 025°14'0 0.0
2017-Sep-14 01:56N 37°23' E 025°14'0 0.0
2017-Sep-14 01:05N 37°23' E 025°14'0 0.0
2017-Sep-14 00:59N 37°23' E 025°14'0 0.0
2017-Sep-14 00:26N 37°23' E 025°14'0 0.0
2017-Sep-13 22:44N 37°23' E 025°14'0 0.0
2017-Sep-13 22:29N 37°23' E 025°14'0 0.0
2017-Sep-13 21:56N 37°23' E 025°14'0 0.0
2017-Sep-13 21:29N 37°23' E 025°14'0 0.0
2017-Sep-13 20:59N 37°23' E 025°14'0 0.0
2017-Sep-13 20:29N 37°23' E 025°14'0 0.0
2017-Sep-13 19:53N 37°23' E 025°14'0 0.0
2017-Sep-13 19:29N 37°23' E 025°14'0 0.0
2017-Sep-13 18:53N 37°23' E 025°14'0 0.0
2017-Sep-13 17:26N 37°23' E 025°14'0 0.2
2017-Sep-13 16:57N 37°23' E 025°14'1 2.1
2017-Sep-13 16:30N 37°23' E 025°15'0 0.9
2017-Sep-13 15:59N 37°23' E 025°16'0 0.0
2017-Sep-13 15:26N 37°23' E 025°16'0 0.0
2017-Sep-13 14:56N 37°23' E 025°16'0 0.0
2017-Sep-13 14:29N 37°23' E 025°16'0 0.0
2017-Sep-13 13:53N 37°23' E 025°16'0 0.0
2017-Sep-13 13:23N 37°23' E 025°16'0 0.0
2017-Sep-13 12:53N 37°23' E 025°16'0 0.0
2017-Sep-13 12:23N 37°23' E 025°16'1 2.7
2017-Sep-13 11:59N 37°23' E 025°14'4 7.5
2017-Sep-13 11:30N 37°22' E 025°10'17 0.8
2017-Sep-12 14:27N 37°31' E 024°50'4 9.7
2017-Sep-12 14:00N 37°30' E 024°45'51 2.2
2017-Sep-11 15:04N 37°48' E 023°45'1 9.6
2017-Sep-11 14:59N 37°49' E 023°45'1 2.5
2017-Sep-11 14:30N 37°50' E 023°45'0 0.0
2017-Sep-11 14:00N 37°50' E 023°45'0 0.0
2017-Sep-11 13:30N 37°50' E 023°45'0 0.0
2017-Sep-11 13:00N 37°50' E 023°45'0 0.0
2017-Sep-11 12:27N 37°50' E 023°45'0 0.0
2017-Sep-11 12:00N 37°50' E 023°45'0 0.0
2017-Sep-11 11:30N 37°50' E 023°45'2 4.4
2017-Sep-11 11:00N 37°52' E 023°43'4 8.9
2017-Sep-11 10:30N 37°56' E 023°41'0 0.4
2017-Sep-11 09:58N 37°56' E 023°41'0 0.0
2017-Sep-11 09:28N 37°56' E 023°41'0 0.0
2017-Sep-11 08:52N 37°56' E 023°41'0 0.0
2017-Sep-11 08:25N 37°56' E 023°41'0 0.0
2017-Sep-11 07:55N 37°56' E 023°41'0 0.0
2017-Sep-11 07:28N 37°56' E 023°41'0 0.0
2017-Sep-11 06:58N 37°56' E 023°41'0 0.0
2017-Sep-11 06:28N 37°56' E 023°41'0 0.0
2017-Sep-11 05:58N 37°56' E 023°41'0 0.0
2017-Sep-11 05:22N 37°56' E 023°41'0 0.0
2017-Sep-11 04:55N 37°56' E 023°41'0 0.0
2017-Sep-11 04:19N 37°56' E 023°41'0 0.0
2017-Sep-11 03:52N 37°56' E 023°41'0 0.0
2017-Sep-11 03:22N 37°56' E 023°41'0 0.0
2017-Sep-11 02:55N 37°56' E 023°41'0 0.0
2017-Sep-11 02:22N 37°56' E 023°41'0 0.0
2017-Sep-11 01:58N 37°56' E 023°41'0 0.0
2017-Sep-11 01:25N 37°56' E 023°41'0 0.0
2017-Sep-11 00:58N 37°56' E 023°41'0 0.0
2017-Sep-11 00:28N 37°56' E 023°41'0 0.0
2017-Sep-10 23:55N 37°56' E 023°41'0 0.0
2017-Sep-10 23:25N 37°56' E 023°41'0 0.0
2017-Sep-10 22:58N 37°56' E 023°41'0 0.0
2017-Sep-10 22:28N 37°56' E 023°41'0 0.0
2017-Sep-10 21:58N 37°56' E 023°41'0 0.0
2017-Sep-10 21:28N 37°56' E 023°41'0 0.0
2017-Sep-10 20:58N 37°56' E 023°41'0 0.0
2017-Sep-10 20:28N 37°56' E 023°41'0 0.0
2017-Sep-10 19:58N 37°56' E 023°41'0 0.0
2017-Sep-10 19:28N 37°56' E 023°41'0 0.0
2017-Sep-10 18:58N 37°56' E 023°41'0 0.0
2017-Sep-10 18:25N 37°56' E 023°41'0 0.0
2017-Sep-10 17:58N 37°56' E 023°41'0 0.0
2017-Sep-10 17:25N 37°56' E 023°41'0 0.0
2017-Sep-10 16:58N 37°56' E 023°41'0 0.0
2017-Sep-10 16:07N 37°56' E 023°41'0 0.0
2017-Sep-10 15:49N 37°56' E 023°41'0 0.0
2017-Sep-10 15:28N 37°56' E 023°41'0 0.0
2017-Sep-10 14:49N 37°56' E 023°41'0 0.0
2017-Sep-10 13:58N 37°56' E 023°41'0 0.0
2017-Sep-10 13:25N 37°56' E 023°41'0 0.0
2017-Sep-10 12:55N 37°56' E 023°41'0 0.0
2017-Sep-10 12:25N 37°56' E 023°41'0 0.0
2017-Sep-10 11:58N 37°56' E 023°41'0 0.0
2017-Sep-10 11:28N 37°56' E 023°41'0 0.0
2017-Sep-10 10:58N 37°56' E 023°41'0 0.0
2017-Sep-10 10:22N 37°56' E 023°41'0 0.0
2017-Sep-10 09:55N 37°56' E 023°41'0 0.0
2017-Sep-10 09:28N 37°56' E 023°41'0 0.0
2017-Sep-10 08:58N 37°56' E 023°41'0 0.0
2017-Sep-10 08:28N 37°56' E 023°41'0 0.0
2017-Sep-10 07:52N 37°56' E 023°41'0 0.0
2017-Sep-10 07:10N 37°56' E 023°41'0 0.0
2017-Sep-10 06:58N 37°56' E 023°41'0 0.0
2017-Sep-10 06:25N 37°56' E 023°41'0 0.0
2017-Sep-10 05:58N 37°56' E 023°41'0 0.0
2017-Sep-10 05:25N 37°56' E 023°41'0 0.0
2017-Sep-10 04:58N 37°56' E 023°41'0 0.0
2017-Sep-10 04:28N 37°56' E 023°41'0 0.0
2017-Sep-10 03:58N 37°56' E 023°41'0 0.0
2017-Sep-10 03:28N 37°56' E 023°41'0 0.0
2017-Sep-10 02:55N 37°56' E 023°41'0 0.0
2017-Sep-10 02:28N 37°56' E 023°41'0 0.0
2017-Sep-10 01:58N 37°56' E 023°41'0 0.0
2017-Sep-10 01:28N 37°56' E 023°41'0 0.0
2017-Sep-10 00:58N 37°56' E 023°41'0 0.0
2017-Sep-10 00:28N 37°56' E 023°41'0 0.0
2017-Sep-09 23:58N 37°56' E 023°41'0 0.0
2017-Sep-09 23:28N 37°56' E 023°41'0 0.0
2017-Sep-09 22:58N 37°56' E 023°41'0 0.0
2017-Sep-09 22:22N 37°56' E 023°41'0 0.0
2017-Sep-09 21:55N 37°56' E 023°41'0 0.0
2017-Sep-09 21:22N 37°56' E 023°41'0 0.0
2017-Sep-09 20:58N 37°56' E 023°41'0 0.0
2017-Sep-09 20:28N 37°56' E 023°41'0 0.0
2017-Sep-09 19:58N 37°56' E 023°41'0 0.0
2017-Sep-09 19:28N 37°56' E 023°41'0 0.0
2017-Sep-09 18:58N 37°56' E 023°41'0 0.0
2017-Sep-09 18:28N 37°56' E 023°41'0 0.0
2017-Sep-09 17:58N 37°56' E 023°41'0 0.0
2017-Sep-09 17:28N 37°56' E 023°41'0 0.0
2017-Sep-09 16:59N 37°56' E 023°41'0 0.0
2017-Sep-09 16:29N 37°56' E 023°41'0 0.0
2017-Sep-09 15:55N 37°56' E 023°41'0 0.0
2017-Sep-09 15:28N 37°56' E 023°41'0 0.0
2017-Sep-09 14:56N 37°56' E 023°41'0 0.0
2017-Sep-09 14:29N 37°56' E 023°41'0 0.0
2017-Sep-09 13:59N 37°56' E 023°41'0 0.0
2017-Sep-09 13:29N 37°56' E 023°41'0 0.0
2017-Sep-09 12:59N 37°56' E 023°41'0 0.0
2017-Sep-09 12:29N 37°56' E 023°41'0 0.0
2017-Sep-09 11:56N 37°56' E 023°41'0 0.0
2017-Sep-09 11:26N 37°56' E 023°41'0 0.0
2017-Sep-09 10:56N 37°56' E 023°41'0 0.0
2017-Sep-09 10:29N 37°56' E 023°41'0 0.0
2017-Sep-09 09:56N 37°56' E 023°41'0 0.0
2017-Sep-09 09:29N 37°56' E 023°41'0 0.0
2017-Sep-09 08:59N 37°56' E 023°41'0 0.0
2017-Sep-09 08:26N 37°56' E 023°41'0 0.0
2017-Sep-09 07:59N 37°56' E 023°41'0 0.0
2017-Sep-09 07:29N 37°56' E 023°41'0 0.0
2017-Sep-09 06:56N 37°56' E 023°41'0 0.0
2017-Sep-09 06:29N 37°56' E 023°41'0 0.0
2017-Sep-09 05:59N 37°56' E 023°41'0 0.0
2017-Sep-09 05:29N 37°56' E 023°41'0 0.0
2017-Sep-09 04:59N 37°56' E 023°41'0 0.0
2017-Sep-09 04:29N 37°56' E 023°41'0 0.0
2017-Sep-09 03:59N 37°56' E 023°41'0 0.0
2017-Sep-09 03:26N 37°56' E 023°41'0 0.0
2017-Sep-09 02:59N 37°56' E 023°41'0 0.0
2017-Sep-09 02:29N 37°56' E 023°41'0 0.0
2017-Sep-09 01:59N 37°56' E 023°41'0 0.0
2017-Sep-09 01:29N 37°56' E 023°41'0 0.0
2017-Sep-09 00:59N 37°56' E 023°41'0 0.0
2017-Sep-09 00:26N 37°56' E 023°41'0 0.0
2017-Sep-08 23:53N 37°56' E 023°41'0 0.0
2017-Sep-08 23:29N 37°56' E 023°41'0 0.0
2017-Sep-08 22:59N 37°56' E 023°41'0 0.0
2017-Sep-08 22:29N 37°56' E 023°41'0 0.0
2017-Sep-08 21:59N 37°56' E 023°41'0 0.0
2017-Sep-08 21:29N 37°56' E 023°41'0 0.0
2017-Sep-08 20:53N 37°56' E 023°41'0 0.0
2017-Sep-08 20:29N 37°56' E 023°41'0 0.0
2017-Sep-08 19:50N 37°56' E 023°41'0 0.0
2017-Sep-08 19:17N 37°56' E 023°41'0 0.0
2017-Sep-08 18:59N 37°56' E 023°41'0 0.0
2017-Sep-08 18:29N 37°56' E 023°41'0 0.0
2017-Sep-08 17:56N 37°56' E 023°41'0 0.0
2017-Sep-08 17:29N 37°56' E 023°41'0 0.0
2017-Sep-08 16:59N 37°56' E 023°41'0 0.0
2017-Sep-08 16:29N 37°56' E 023°41'0 0.0
2017-Sep-08 15:53N 37°56' E 023°41'0 0.0
2017-Sep-08 15:20N 37°56' E 023°41'0 0.0
2017-Sep-08 14:59N 37°56' E 023°41'0 0.0
2017-Sep-08 14:26N 37°56' E 023°41'0 0.0
2017-Sep-08 13:59N 37°56' E 023°41'0 0.0
2017-Sep-08 13:29N 37°56' E 023°41'0 0.0
2017-Sep-08 12:59N 37°56' E 023°41'0 0.0
2017-Sep-08 12:29N 37°56' E 023°41'0 0.0
2017-Sep-08 11:59N 37°56' E 023°41'0 0.0
2017-Sep-08 11:26N 37°56' E 023°41'0 0.0
2017-Sep-08 10:59N 37°56' E 023°41'0 0.0
2017-Sep-08 10:29N 37°56' E 023°41'0 0.0
2017-Sep-08 09:56N 37°56' E 023°41'0 0.0
2017-Sep-08 09:29N 37°56' E 023°41'0 0.0
2017-Sep-08 08:59N 37°56' E 023°41'0 0.0
2017-Sep-08 08:29N 37°56' E 023°41'0 0.0
2017-Sep-08 07:59N 37°56' E 023°41'0 0.0
2017-Sep-08 07:23N 37°56' E 023°41'0 0.0
2017-Sep-08 06:56N 37°56' E 023°41'0 0.0
2017-Sep-08 06:29N 37°56' E 023°41'0 0.0
2017-Sep-08 05:53N 37°56' E 023°41'0 0.0
2017-Sep-08 05:17N 37°56' E 023°41'0 0.0
2017-Sep-08 04:59N 37°56' E 023°41'0 0.0
2017-Sep-08 04:23N 37°56' E 023°41'0 0.0
2017-Sep-08 03:59N 37°56' E 023°41'0 0.0
2017-Sep-08 03:29N 37°56' E 023°41'0 0.0
2017-Sep-08 02:59N 37°56' E 023°41'0 0.0
2017-Sep-08 02:29N 37°56' E 023°41'0 0.0
2017-Sep-08 01:59N 37°56' E 023°41'0 0.0
2017-Sep-08 01:29N 37°56' E 023°41'0 0.0
2017-Sep-08 00:59N 37°56' E 023°41'0 0.0
2017-Sep-08 00:29N 37°56' E 023°41'0 0.0
2017-Sep-07 23:59N 37°56' E 023°41'0 0.0
2017-Sep-07 23:29N 37°56' E 023°41'0 0.0
2017-Sep-07 22:59N 37°56' E 023°41'0 0.0
2017-Sep-07 22:29N 37°56' E 023°41'0 0.0
2017-Sep-07 21:59N 37°56' E 023°41'0 0.0
2017-Sep-07 21:29N 37°56' E 023°41'0 0.0
2017-Sep-07 20:59N 37°56' E 023°41'0 0.0
2017-Sep-07 20:29N 37°56' E 023°41'0 0.0
2017-Sep-07 19:59N 37°56' E 023°41'0 0.0
2017-Sep-07 19:23N 37°56' E 023°41'0 0.0
2017-Sep-07 18:59N 37°56' E 023°41'0 0.0
2017-Sep-07 18:29N 37°56' E 023°41'0 0.0
2017-Sep-07 17:59N 37°56' E 023°41'0 0.0
2017-Sep-07 17:29N 37°56' E 023°41'0 0.0
2017-Sep-07 16:50N 37°56' E 023°41'0 0.0
2017-Sep-07 16:29N 37°56' E 023°41'0 0.0
2017-Sep-07 15:59N 37°56' E 023°41'0 0.0
2017-Sep-07 15:29N 37°56' E 023°41'0 0.0
2017-Sep-07 14:56N 37°56' E 023°41'0 0.0
2017-Sep-07 14:29N 37°56' E 023°41'0 0.0
2017-Sep-07 13:59N 37°56' E 023°41'0 0.0
2017-Sep-07 13:29N 37°56' E 023°41'0 0.0
2017-Sep-07 12:47N 37°56' E 023°41'0 0.0
2017-Sep-07 12:29N 37°56' E 023°41'0 0.0
2017-Sep-07 11:53N 37°56' E 023°41'0 0.0
2017-Sep-07 11:23N 37°56' E 023°41'0 0.0
2017-Sep-07 10:59N 37°56' E 023°41'0 0.0
2017-Sep-07 10:29N 37°56' E 023°41'0 0.0
2017-Sep-07 09:56N 37°56' E 023°41'0 0.0
2017-Sep-07 09:29N 37°56' E 023°41'0 0.0
2017-Sep-07 08:59N 37°56' E 023°41'0 0.0
2017-Sep-07 08:29N 37°56' E 023°41'0 0.0
2017-Sep-07 07:59N 37°56' E 023°41'0 0.0
2017-Sep-07 07:11N 37°56' E 023°41'0 0.0
2017-Sep-07 06:59N 37°56' E 023°41'0 0.0
2017-Sep-07 06:29N 37°56' E 023°41'0 0.0
2017-Sep-07 05:56N 37°56' E 023°41'0 0.0
2017-Sep-07 05:29N 37°56' E 023°41'0 0.0
2017-Sep-07 04:59N 37°56' E 023°41'0 0.0
2017-Sep-07 04:29N 37°56' E 023°41'0 0.0
2017-Sep-07 03:56N 37°56' E 023°41'0 0.0
2017-Sep-07 03:26N 37°56' E 023°41'0 0.0
2017-Sep-07 02:59N 37°56' E 023°41'0 0.0
2017-Sep-07 02:26N 37°56' E 023°41'0 0.0
2017-Sep-07 01:59N 37°56' E 023°41'0 0.0
2017-Sep-07 01:26N 37°56' E 023°41'0 0.0
2017-Sep-07 00:59N 37°56' E 023°41'0 0.0
2017-Sep-07 00:29N 37°56' E 023°41'0 0.0
2017-Sep-06 23:59N 37°56' E 023°41'0 0.0
2017-Sep-06 23:29N 37°56' E 023°41'0 0.0
2017-Sep-06 22:59N 37°56' E 023°41'0 0.0
2017-Sep-06 22:29N 37°56' E 023°41'0 0.0
2017-Sep-06 21:59N 37°56' E 023°41'0 0.0
2017-Sep-06 21:29N 37°56' E 023°41'0 0.0
2017-Sep-06 20:56N 37°56' E 023°41'0 0.0
2017-Sep-06 20:29N 37°56' E 023°41'0 0.0
2017-Sep-06 19:59N 37°56' E 023°41'0 0.0
2017-Sep-06 19:29N 37°56' E 023°41'0 0.0
2017-Sep-06 18:59N 37°56' E 023°41'0 0.0
2017-Sep-06 18:29N 37°56' E 023°41'0 0.0
2017-Sep-06 17:59N 37°56' E 023°41'0 0.0
2017-Sep-06 17:23N 37°56' E 023°41'0 0.0
2017-Sep-06 16:59N 37°56' E 023°41'0 0.0
2017-Sep-06 16:29N 37°56' E 023°41'0 0.0
2017-Sep-06 15:59N 37°56' E 023°41'0 0.0
2017-Sep-06 15:23N 37°56' E 023°41'0 0.0
2017-Sep-06 14:59N 37°56' E 023°41'0 0.0
2017-Sep-06 14:29N 37°56' E 023°41'0 0.0
2017-Sep-06 13:50N 37°56' E 023°41'0 0.0
2017-Sep-06 13:29N 37°56' E 023°41'0 0.0
2017-Sep-06 12:59N 37°56' E 023°41'0 0.0
2017-Sep-06 12:29N 37°56' E 023°41'0 0.0
2017-Sep-06 11:59N 37°56' E 023°41'0 0.0
2017-Sep-06 11:29N 37°56' E 023°41'0 0.0
2017-Sep-06 10:59N 37°56' E 023°41'0 0.0
2017-Sep-06 10:23N 37°56' E 023°41'0 0.0
2017-Sep-06 09:59N 37°56' E 023°41'0 0.0
2017-Sep-06 09:23N 37°56' E 023°41'0 0.0
2017-Sep-06 08:14N 37°56' E 023°41'0 0.0
2017-Sep-06 07:56N 37°56' E 023°41'0 0.0
2017-Sep-06 07:20N 37°56' E 023°41'0 0.0
2017-Sep-06 06:56N 37°56' E 023°41'0 0.0
2017-Sep-06 06:20N 37°56' E 023°41'0 0.0
2017-Sep-06 05:56N 37°56' E 023°41'0 0.0
2017-Sep-06 05:29N 37°56' E 023°41'0 0.0
2017-Sep-06 04:56N 37°56' E 023°41'0 0.0
2017-Sep-06 04:26N 37°56' E 023°41'0 0.0
2017-Sep-06 03:59N 37°56' E 023°41'0 0.0
2017-Sep-06 03:29N 37°56' E 023°41'0 0.0
2017-Sep-06 02:59N 37°56' E 023°41'0 0.0
2017-Sep-06 02:29N 37°56' E 023°41'0 0.0
2017-Sep-06 01:59N 37°56' E 023°41'0 0.0
2017-Sep-06 01:29N 37°56' E 023°41'0 0.0
2017-Sep-06 00:59N 37°56' E 023°41'0 0.0
2017-Sep-06 00:29N 37°56' E 023°41'0 0.0
2017-Sep-05 23:59N 37°56' E 023°41'0 0.0
2017-Sep-05 23:29N 37°56' E 023°41'0 0.0
2017-Sep-05 22:59N 37°56' E 023°41'0 0.0
2017-Sep-05 22:26N 37°56' E 023°41'0 0.0
2017-Sep-05 21:59N 37°56' E 023°41'0 0.0
2017-Sep-05 21:29N 37°56' E 023°41'0 0.0
2017-Sep-05 20:59N 37°56' E 023°41'0 0.0
2017-Sep-05 20:26N 37°56' E 023°41'0 0.0
2017-Sep-05 19:59N 37°56' E 023°41'0 0.0
2017-Sep-05 19:29N 37°56' E 023°41'0 0.0
2017-Sep-05 18:56N 37°56' E 023°41'0 0.0
2017-Sep-05 18:29N 37°56' E 023°41'0 0.0
2017-Sep-05 17:59N 37°56' E 023°41'0 0.0
2017-Sep-05 17:29N 37°56' E 023°41'0 0.0
2017-Sep-05 16:59N 37°56' E 023°41'0 0.0
2017-Sep-05 16:23N 37°56' E 023°41'0 0.0
2017-Sep-05 15:44N 37°56' E 023°41'0 0.0
2017-Sep-05 15:26N 37°56' E 023°41'0 0.0
2017-Sep-05 14:59N 37°56' E 023°41'0 0.0
2017-Sep-05 14:29N 37°56' E 023°41'0 0.0
2017-Sep-05 13:59N 37°56' E 023°41'0 0.0
2017-Sep-05 13:26N 37°56' E 023°41'0 0.0
2017-Sep-05 12:56N 37°56' E 023°41'0 0.0
2017-Sep-05 12:26N 37°56' E 023°41'0 0.0
2017-Sep-05 11:56N 37°56' E 023°41'0 0.0
2017-Sep-05 11:29N 37°56' E 023°41'0 0.0
2017-Sep-05 10:56N 37°56' E 023°41'0 0.0
2017-Sep-05 10:29N 37°56' E 023°41'  
Track history (hours):
 
Tides and Currents Weather Stations Pressure Air Temp Water Temp Dewpoint Dewpoint Depression Visibility Wind Speed Wind Dir Waves Ship Positions

Oncle Paul

Last reported at 2017-Sep-15 10:24 UTC. Time now 2017-Sep-20 18:37 UTC.
Position N 36°58' E 025°10'.

Length 34 m.

Type: Pleasure craft. MMSI: 232996000.

Date/timePositionNaut miles runAvg speedWind from/ knotsBaromVisibWave heightAir tempDewpointWater temp
2017-Sep-15 10:24N 36°58' E 025°10'4 9.1
2017-Sep-15 09:56N 36°59' E 025°15'4 9.5
2017-Sep-15 09:30N 37°03' E 025°17'5 9.9
2017-Sep-15 09:00N 37°08' E 025°18'5 9.4
2017-Sep-15 08:30N 37°13' E 025°19'5 9.3
2017-Sep-15 07:59N 37°18' E 025°19'5 9.6
2017-Sep-15 07:30N 37°22' E 025°19'3 4.2
2017-Sep-15 06:50N 37°25' E 025°19'0 0.0
2017-Sep-15 06:29N 37°25' E 025°19'0 0.0
2017-Sep-15 05:59N 37°25' E 025°19'0 0.0
2017-Sep-15 05:23N 37°25' E 025°19'0 0.0
2017-Sep-15 04:56N 37°25' E 025°19'0 0.0
2017-Sep-15 04:02N 37°25' E 025°19'0 0.0
2017-Sep-15 03:53N 37°25' E 025°19'0 0.0
2017-Sep-15 03:23N 37°25' E 025°19'0 0.0
2017-Sep-15 01:41N 37°25' E 025°19'0 0.0
2017-Sep-15 01:29N 37°25' E 025°19'0 0.0
2017-Sep-15 00:56N 37°25' E 025°19'0 0.0
2017-Sep-15 00:23N 37°25' E 025°19'0 0.0
2017-Sep-14 23:44N 37°25' E 025°19'0 0.0
2017-Sep-14 23:23N 37°25' E 025°19'0 0.0
2017-Sep-14 22:59N 37°25' E 025°19'0 0.0
2017-Sep-14 22:26N 37°25' E 025°19'0 0.0
2017-Sep-14 21:50N 37°25' E 025°19'0 0.1
2017-Sep-14 21:29N 37°25' E 025°19'0 0.0
2017-Sep-14 20:59N 37°25' E 025°19'0 0.0
2017-Sep-14 20:23N 37°25' E 025°19'0 0.0
2017-Sep-14 19:53N 37°25' E 025°19'0 0.0
2017-Sep-14 19:23N 37°25' E 025°19'0 0.0
2017-Sep-14 18:59N 37°25' E 025°19'0 0.0
2017-Sep-14 18:29N 37°25' E 025°19'0 0.0
2017-Sep-14 17:59N 37°25' E 025°19'0 0.0
2017-Sep-14 17:23N 37°25' E 025°19'0 0.0
2017-Sep-14 16:35N 37°25' E 025°19'0 0.1
2017-Sep-14 16:23N 37°25' E 025°19'0 0.0
2017-Sep-14 15:59N 37°25' E 025°19'2 3.4
2017-Sep-14 15:29N 37°23' E 025°19'3 7.1
2017-Sep-14 15:00N 37°22' E 025°15'1 1.0
2017-Sep-14 14:26N 37°23' E 025°14'0 0.0
2017-Sep-14 13:59N 37°23' E 025°14'0 0.0
2017-Sep-14 13:29N 37°23' E 025°14'0 0.0
2017-Sep-14 12:47N 37°23' E 025°14'0 0.0
2017-Sep-14 12:29N 37°23' E 025°14'0 0.0
2017-Sep-14 11:59N 37°23' E 025°14'0 0.0
2017-Sep-14 11:26N 37°23' E 025°14'0 0.0
2017-Sep-14 10:47N 37°23' E 025°14'0 0.0
2017-Sep-14 10:23N 37°23' E 025°14'0 0.0
2017-Sep-14 09:59N 37°23' E 025°14'0 0.0
2017-Sep-14 09:26N 37°23' E 025°14'0 0.0
2017-Sep-14 08:56N 37°23' E 025°14'0 0.0
2017-Sep-14 08:26N 37°23' E 025°14'0 0.0
2017-Sep-14 07:59N 37°23' E 025°14'0 0.0
2017-Sep-14 06:50N 37°23' E 025°14'0 0.0
2017-Sep-14 06:29N 37°23' E 025°14'0 0.0
2017-Sep-14 05:53N 37°23' E 025°14'0 0.0
2017-Sep-14 05:26N 37°23' E 025°14'0 0.0
2017-Sep-14 04:53N 37°23' E 025°14'0 0.0
2017-Sep-14 04:14N 37°23' E 025°14'0 0.0
2017-Sep-14 03:56N 37°23' E 025°14'0 0.0
2017-Sep-14 02:20N 37°23' E 025°14'0 0.0
2017-Sep-14 01:56N 37°23' E 025°14'0 0.0
2017-Sep-14 01:05N 37°23' E 025°14'0 0.0
2017-Sep-14 00:59N 37°23' E 025°14'0 0.0
2017-Sep-14 00:26N 37°23' E 025°14'0 0.0
2017-Sep-13 22:44N 37°23' E 025°14'0 0.0
2017-Sep-13 22:29N 37°23' E 025°14'0 0.0
2017-Sep-13 21:56N 37°23' E 025°14'0 0.0
2017-Sep-13 21:29N 37°23' E 025°14'0 0.0
2017-Sep-13 20:59N 37°23' E 025°14'0 0.0
2017-Sep-13 20:29N 37°23' E 025°14'0 0.0
2017-Sep-13 19:53N 37°23' E 025°14'0 0.0
2017-Sep-13 19:29N 37°23' E 025°14'0 0.0
2017-Sep-13 18:53N 37°23' E 025°14'0 0.0
2017-Sep-13 17:26N 37°23' E 025°14'0 0.2
2017-Sep-13 16:57N 37°23' E 025°14'1 2.1
2017-Sep-13 16:30N 37°23' E 025°15'0 0.9
2017-Sep-13 15:59N 37°23' E 025°16'0 0.0
2017-Sep-13 15:26N 37°23' E 025°16'0 0.0
2017-Sep-13 14:56N 37°23' E 025°16'0 0.0
2017-Sep-13 14:29N 37°23' E 025°16'0 0.0
2017-Sep-13 13:53N 37°23' E 025°16'0 0.0
2017-Sep-13 13:23N 37°23' E 025°16'0 0.0
2017-Sep-13 12:53N 37°23' E 025°16'0 0.0
2017-Sep-13 12:23N 37°23' E 025°16'1 2.7
2017-Sep-13 11:59N 37°23' E 025°14'4 7.5
2017-Sep-13 11:30N 37°22' E 025°10'17 0.8
2017-Sep-12 14:27N 37°31' E 024°50'4 9.7
2017-Sep-12 14:00N 37°30' E 024°45'51 2.2
2017-Sep-11 15:04N 37°48' E 023°45'1 9.6
2017-Sep-11 14:59N 37°49' E 023°45'1 2.5
2017-Sep-11 14:30N 37°50' E 023°45'0 0.0
2017-Sep-11 14:00N 37°50' E 023°45'0 0.0
2017-Sep-11 13:30N 37°50' E 023°45'0 0.0
2017-Sep-11 13:00N 37°50' E 023°45'0 0.0
2017-Sep-11 12:27N 37°50' E 023°45'0 0.0
2017-Sep-11 12:00N 37°50' E 023°45'0 0.0
2017-Sep-11 11:30N 37°50' E 023°45'2 4.4
2017-Sep-11 11:00N 37°52' E 023°43'4 8.9
2017-Sep-11 10:30N 37°56' E 023°41'0 0.4
2017-Sep-11 09:58N 37°56' E 023°41'0 0.0
2017-Sep-11 09:28N 37°56' E 023°41'0 0.0
2017-Sep-11 08:52N 37°56' E 023°41'0 0.0
2017-Sep-11 08:25N 37°56' E 023°41'0 0.0
2017-Sep-11 07:55N 37°56' E 023°41'0 0.0
2017-Sep-11 07:28N 37°56' E 023°41'0 0.0
2017-Sep-11 06:58N 37°56' E 023°41'0 0.0
2017-Sep-11 06:28N 37°56' E 023°41'0 0.0
2017-Sep-11 05:58N 37°56' E 023°41'0 0.0
2017-Sep-11 05:22N 37°56' E 023°41'0 0.0
2017-Sep-11 04:55N 37°56' E 023°41'0 0.0
2017-Sep-11 04:19N 37°56' E 023°41'0 0.0
2017-Sep-11 03:52N 37°56' E 023°41'0 0.0
2017-Sep-11 03:22N 37°56' E 023°41'0 0.0
2017-Sep-11 02:55N 37°56' E 023°41'0 0.0
2017-Sep-11 02:22N 37°56' E 023°41'0 0.0
2017-Sep-11 01:58N 37°56' E 023°41'0 0.0
2017-Sep-11 01:25N 37°56' E 023°41'0 0.0
2017-Sep-11 00:58N 37°56' E 023°41'0 0.0
2017-Sep-11 00:28N 37°56' E 023°41'0 0.0
2017-Sep-10 23:55N 37°56' E 023°41'0 0.0
2017-Sep-10 23:25N 37°56' E 023°41'0 0.0
2017-Sep-10 22:58N 37°56' E 023°41'0 0.0
2017-Sep-10 22:28N 37°56' E 023°41'0 0.0
2017-Sep-10 21:58N 37°56' E 023°41'0 0.0
2017-Sep-10 21:28N 37°56' E 023°41'0 0.0
2017-Sep-10 20:58N 37°56' E 023°41'0 0.0
2017-Sep-10 20:28N 37°56' E 023°41'0 0.0
2017-Sep-10 19:58N 37°56' E 023°41'0 0.0
2017-Sep-10 19:28N 37°56' E 023°41'0 0.0
2017-Sep-10 18:58N 37°56' E 023°41'0 0.0
2017-Sep-10 18:25N 37°56' E 023°41'0 0.0
2017-Sep-10 17:58N 37°56' E 023°41'0 0.0
2017-Sep-10 17:25N 37°56' E 023°41'0 0.0
2017-Sep-10 16:58N 37°56' E 023°41'0 0.0
2017-Sep-10 16:07N 37°56' E 023°41'0 0.0
2017-Sep-10 15:49N 37°56' E 023°41'0 0.0
2017-Sep-10 15:28N 37°56' E 023°41'0 0.0
2017-Sep-10 14:49N 37°56' E 023°41'0 0.0
2017-Sep-10 13:58N 37°56' E 023°41'0 0.0
2017-Sep-10 13:25N 37°56' E 023°41'0 0.0
2017-Sep-10 12:55N 37°56' E 023°41'0 0.0
2017-Sep-10 12:25N 37°56' E 023°41'0 0.0
2017-Sep-10 11:58N 37°56' E 023°41'0 0.0
2017-Sep-10 11:28N 37°56' E 023°41'0 0.0
2017-Sep-10 10:58N 37°56' E 023°41'0 0.0
2017-Sep-10 10:22N 37°56' E 023°41'0 0.0
2017-Sep-10 09:55N 37°56' E 023°41'0 0.0
2017-Sep-10 09:28N 37°56' E 023°41'0 0.0
2017-Sep-10 08:58N 37°56' E 023°41'0 0.0
2017-Sep-10 08:28N 37°56' E 023°41'0 0.0
2017-Sep-10 07:52N 37°56' E 023°41'0 0.0
2017-Sep-10 07:10N 37°56' E 023°41'0 0.0
2017-Sep-10 06:58N 37°56' E 023°41'0 0.0
2017-Sep-10 06:25N 37°56' E 023°41'0 0.0
2017-Sep-10 05:58N 37°56' E 023°41'0 0.0
2017-Sep-10 05:25N 37°56' E 023°41'0 0.0
2017-Sep-10 04:58N 37°56' E 023°41'0 0.0
2017-Sep-10 04:28N 37°56' E 023°41'0 0.0
2017-Sep-10 03:58N 37°56' E 023°41'0 0.0
2017-Sep-10 03:28N 37°56' E 023°41'0 0.0
2017-Sep-10 02:55N 37°56' E 023°41'0 0.0
2017-Sep-10 02:28N 37°56' E 023°41'0 0.0
2017-Sep-10 01:58N 37°56' E 023°41'0 0.0
2017-Sep-10 01:28N 37°56' E 023°41'0 0.0
2017-Sep-10 00:58N 37°56' E 023°41'0 0.0
2017-Sep-10 00:28N 37°56' E 023°41'0 0.0
2017-Sep-09 23:58N 37°56' E 023°41'0 0.0
2017-Sep-09 23:28N 37°56' E 023°41'0 0.0
2017-Sep-09 22:58N 37°56' E 023°41'0 0.0
2017-Sep-09 22:22N 37°56' E 023°41'0 0.0
2017-Sep-09 21:55N 37°56' E 023°41'0 0.0
2017-Sep-09 21:22N 37°56' E 023°41'0 0.0
2017-Sep-09 20:58N 37°56' E 023°41'0 0.0
2017-Sep-09 20:28N 37°56' E 023°41'0 0.0
2017-Sep-09 19:58N 37°56' E 023°41'0 0.0
2017-Sep-09 19:28N 37°56' E 023°41'0 0.0
2017-Sep-09 18:58N 37°56' E 023°41'0 0.0
2017-Sep-09 18:28N 37°56' E 023°41'0 0.0
2017-Sep-09 17:58N 37°56' E 023°41'0 0.0
2017-Sep-09 17:28N 37°56' E 023°41'0 0.0
2017-Sep-09 16:59N 37°56' E 023°41'0 0.0
2017-Sep-09 16:29N 37°56' E 023°41'0 0.0
2017-Sep-09 15:55N 37°56' E 023°41'0 0.0
2017-Sep-09 15:28N 37°56' E 023°41'0 0.0
2017-Sep-09 14:56N 37°56' E 023°41'0 0.0
2017-Sep-09 14:29N 37°56' E 023°41'0 0.0
2017-Sep-09 13:59N 37°56' E 023°41'0 0.0
2017-Sep-09 13:29N 37°56' E 023°41'0 0.0
2017-Sep-09 12:59N 37°56' E 023°41'0 0.0
2017-Sep-09 12:29N 37°56' E 023°41'0 0.0
2017-Sep-09 11:56N 37°56' E 023°41'0 0.0
2017-Sep-09 11:26N 37°56' E 023°41'0 0.0
2017-Sep-09 10:56N 37°56' E 023°41'0 0.0
2017-Sep-09 10:29N 37°56' E 023°41'0 0.0
2017-Sep-09 09:56N 37°56' E 023°41'0 0.0
2017-Sep-09 09:29N 37°56' E 023°41'0 0.0
2017-Sep-09 08:59N 37°56' E 023°41'0 0.0
2017-Sep-09 08:26N 37°56' E 023°41'0 0.0
2017-Sep-09 07:59N 37°56' E 023°41'0 0.0
2017-Sep-09 07:29N 37°56' E 023°41'0 0.0
2017-Sep-09 06:56N 37°56' E 023°41'0 0.0
2017-Sep-09 06:29N 37°56' E 023°41'0 0.0
2017-Sep-09 05:59N 37°56' E 023°41'0 0.0
2017-Sep-09 05:29N 37°56' E 023°41'0 0.0
2017-Sep-09 04:59N 37°56' E 023°41'0 0.0
2017-Sep-09 04:29N 37°56' E 023°41'0 0.0
2017-Sep-09 03:59N 37°56' E 023°41'0 0.0
2017-Sep-09 03:26N 37°56' E 023°41'0 0.0
2017-Sep-09 02:59N 37°56' E 023°41'0 0.0
2017-Sep-09 02:29N 37°56' E 023°41'0 0.0
2017-Sep-09 01:59N 37°56' E 023°41'0 0.0
2017-Sep-09 01:29N 37°56' E 023°41'0 0.0
2017-Sep-09 00:59N 37°56' E 023°41'0 0.0
2017-Sep-09 00:26N 37°56' E 023°41'0 0.0
2017-Sep-08 23:53N 37°56' E 023°41'0 0.0
2017-Sep-08 23:29N 37°56' E 023°41'0 0.0
2017-Sep-08 22:59N 37°56' E 023°41'0 0.0
2017-Sep-08 22:29N 37°56' E 023°41'0 0.0
2017-Sep-08 21:59N 37°56' E 023°41'0 0.0
2017-Sep-08 21:29N 37°56' E 023°41'0 0.0
2017-Sep-08 20:53N 37°56' E 023°41'0 0.0
2017-Sep-08 20:29N 37°56' E 023°41'0 0.0
2017-Sep-08 19:50N 37°56' E 023°41'0 0.0
2017-Sep-08 19:17N 37°56' E 023°41'0 0.0
2017-Sep-08 18:59N 37°56' E 023°41'0 0.0
2017-Sep-08 18:29N 37°56' E 023°41'0 0.0
2017-Sep-08 17:56N 37°56' E 023°41'0 0.0
2017-Sep-08 17:29N 37°56' E 023°41'0 0.0
2017-Sep-08 16:59N 37°56' E 023°41'0 0.0
2017-Sep-08 16:29N 37°56' E 023°41'0 0.0
2017-Sep-08 15:53N 37°56' E 023°41'0 0.0
2017-Sep-08 15:20N 37°56' E 023°41'0 0.0
2017-Sep-08 14:59N 37°56' E 023°41'0 0.0
2017-Sep-08 14:26N 37°56' E 023°41'0 0.0
2017-Sep-08 13:59N 37°56' E 023°41'0 0.0
2017-Sep-08 13:29N 37°56' E 023°41'0 0.0
2017-Sep-08 12:59N 37°56' E 023°41'0 0.0
2017-Sep-08 12:29N 37°56' E 023°41'0 0.0
2017-Sep-08 11:59N 37°56' E 023°41'0 0.0
2017-Sep-08 11:26N 37°56' E 023°41'0 0.0
2017-Sep-08 10:59N 37°56' E 023°41'0 0.0
2017-Sep-08 10:29N 37°56' E 023°41'0 0.0
2017-Sep-08 09:56N 37°56' E 023°41'0 0.0
2017-Sep-08 09:29N 37°56' E 023°41'0 0.0
2017-Sep-08 08:59N 37°56' E 023°41'0 0.0
2017-Sep-08 08:29N 37°56' E 023°41'0 0.0
2017-Sep-08 07:59N 37°56' E 023°41'0 0.0
2017-Sep-08 07:23N 37°56' E 023°41'0 0.0
2017-Sep-08 06:56N 37°56' E 023°41'0 0.0
2017-Sep-08 06:29N 37°56' E 023°41'0 0.0
2017-Sep-08 05:53N 37°56' E 023°41'0 0.0
2017-Sep-08 05:17N 37°56' E 023°41'0 0.0
2017-Sep-08 04:59N 37°56' E 023°41'0 0.0
2017-Sep-08 04:23N 37°56' E 023°41'0 0.0
2017-Sep-08 03:59N 37°56' E 023°41'0 0.0
2017-Sep-08 03:29N 37°56' E 023°41'0 0.0
2017-Sep-08 02:59N 37°56' E 023°41'0 0.0
2017-Sep-08 02:29N 37°56' E 023°41'0 0.0
2017-Sep-08 01:59N 37°56' E 023°41'0 0.0
2017-Sep-08 01:29N 37°56' E 023°41'0 0.0
2017-Sep-08 00:59N 37°56' E 023°41'0 0.0
2017-Sep-08 00:29N 37°56' E 023°41'0 0.0
2017-Sep-07 23:59N 37°56' E 023°41'0 0.0
2017-Sep-07 23:29N 37°56' E 023°41'0 0.0
2017-Sep-07 22:59N 37°56' E 023°41'0 0.0
2017-Sep-07 22:29N 37°56' E 023°41'0 0.0
2017-Sep-07 21:59N 37°56' E 023°41'0 0.0
2017-Sep-07 21:29N 37°56' E 023°41'0 0.0
2017-Sep-07 20:59N 37°56' E 023°41'0 0.0
2017-Sep-07 20:29N 37°56' E 023°41'0 0.0
2017-Sep-07 19:59N 37°56' E 023°41'0 0.0
2017-Sep-07 19:23N 37°56' E 023°41'0 0.0
2017-Sep-07 18:59N 37°56' E 023°41'0 0.0
2017-Sep-07 18:29N 37°56' E 023°41'0 0.0
2017-Sep-07 17:59N 37°56' E 023°41'0 0.0
2017-Sep-07 17:29N 37°56' E 023°41'0 0.0
2017-Sep-07 16:50N 37°56' E 023°41'0 0.0
2017-Sep-07 16:29N 37°56' E 023°41'0 0.0
2017-Sep-07 15:59N 37°56' E 023°41'0 0.0
2017-Sep-07 15:29N 37°56' E 023°41'0 0.0
2017-Sep-07 14:56N 37°56' E 023°41'0 0.0
2017-Sep-07 14:29N 37°56' E 023°41'0 0.0
2017-Sep-07 13:59N 37°56' E 023°41'0 0.0
2017-Sep-07 13:29N 37°56' E 023°41'0 0.0
2017-Sep-07 12:47N 37°56' E 023°41'0 0.0
2017-Sep-07 12:29N 37°56' E 023°41'0 0.0
2017-Sep-07 11:53N 37°56' E 023°41'0 0.0
2017-Sep-07 11:23N 37°56' E 023°41'0 0.0
2017-Sep-07 10:59N 37°56' E 023°41'0 0.0
2017-Sep-07 10:29N 37°56' E 023°41'0 0.0
2017-Sep-07 09:56N 37°56' E 023°41'0 0.0
2017-Sep-07 09:29N 37°56' E 023°41'0 0.0
2017-Sep-07 08:59N 37°56' E 023°41'0 0.0
2017-Sep-07 08:29N 37°56' E 023°41'0 0.0
2017-Sep-07 07:59N 37°56' E 023°41'0 0.0
2017-Sep-07 07:11N 37°56' E 023°41'0 0.0
2017-Sep-07 06:59N 37°56' E 023°41'0 0.0
2017-Sep-07 06:29N 37°56' E 023°41'0 0.0
2017-Sep-07 05:56N 37°56' E 023°41'0 0.0
2017-Sep-07 05:29N 37°56' E 023°41'0 0.0
2017-Sep-07 04:59N 37°56' E 023°41'0 0.0
2017-Sep-07 04:29N 37°56' E 023°41'0 0.0
2017-Sep-07 03:56N 37°56' E 023°41'0 0.0
2017-Sep-07 03:26N 37°56' E 023°41'0 0.0
2017-Sep-07 02:59N 37°56' E 023°41'0 0.0
2017-Sep-07 02:26N 37°56' E 023°41'0 0.0
2017-Sep-07 01:59N 37°56' E 023°41'0 0.0
2017-Sep-07 01:26N 37°56' E 023°41'0 0.0
2017-Sep-07 00:59N 37°56' E 023°41'0 0.0
2017-Sep-07 00:29N 37°56' E 023°41'0 0.0
2017-Sep-06 23:59N 37°56' E 023°41'0 0.0
2017-Sep-06 23:29N 37°56' E 023°41'0 0.0
2017-Sep-06 22:59N 37°56' E 023°41'0 0.0
2017-Sep-06 22:29N 37°56' E 023°41'0 0.0
2017-Sep-06 21:59N 37°56' E 023°41'0 0.0
2017-Sep-06 21:29N 37°56' E 023°41'0 0.0
2017-Sep-06 20:56N 37°56' E 023°41'0 0.0
2017-Sep-06 20:29N 37°56' E 023°41'0 0.0
2017-Sep-06 19:59N 37°56' E 023°41'0 0.0
2017-Sep-06 19:29N 37°56' E 023°41'0 0.0
2017-Sep-06 18:59N 37°56' E 023°41'0 0.0
2017-Sep-06 18:29N 37°56' E 023°41'0 0.0
2017-Sep-06 17:59N 37°56' E 023°41'0 0.0
2017-Sep-06 17:23N 37°56' E 023°41'0 0.0
2017-Sep-06 16:59N 37°56' E 023°41'0 0.0
2017-Sep-06 16:29N 37°56' E 023°41'0 0.0
2017-Sep-06 15:59N 37°56' E 023°41'0 0.0
2017-Sep-06 15:23N 37°56' E 023°41'0 0.0
2017-Sep-06 14:59N 37°56' E 023°41'0 0.0
2017-Sep-06 14:29N 37°56' E 023°41'0 0.0
2017-Sep-06 13:50N 37°56' E 023°41'0 0.0
2017-Sep-06 13:29N 37°56' E 023°41'0 0.0
2017-Sep-06 12:59N 37°56' E 023°41'0 0.0
2017-Sep-06 12:29N 37°56' E 023°41'0 0.0
2017-Sep-06 11:59N 37°56' E 023°41'0 0.0
2017-Sep-06 11:29N 37°56' E 023°41'0 0.0
2017-Sep-06 10:59N 37°56' E 023°41'0 0.0
2017-Sep-06 10:23N 37°56' E 023°41'0 0.0
2017-Sep-06 09:59N 37°56' E 023°41'0 0.0
2017-Sep-06 09:23N 37°56' E 023°41'0 0.0
2017-Sep-06 08:14N 37°56' E 023°41'0 0.0
2017-Sep-06 07:56N 37°56' E 023°41'0 0.0
2017-Sep-06 07:20N 37°56' E 023°41'0 0.0
2017-Sep-06 06:56N 37°56' E 023°41'0 0.0
2017-Sep-06 06:20N 37°56' E 023°41'0 0.0
2017-Sep-06 05:56N 37°56' E 023°41'0 0.0
2017-Sep-06 05:29N 37°56' E 023°41'0 0.0
2017-Sep-06 04:56N 37°56' E 023°41'0 0.0
2017-Sep-06 04:26N 37°56' E 023°41'0 0.0
2017-Sep-06 03:59N 37°56' E 023°41'0 0.0
2017-Sep-06 03:29N 37°56' E 023°41'0 0.0
2017-Sep-06 02:59N 37°56' E 023°41'0 0.0
2017-Sep-06 02:29N 37°56' E 023°41'0 0.0
2017-Sep-06 01:59N 37°56' E 023°41'0 0.0
2017-Sep-06 01:29N 37°56' E 023°41'0 0.0
2017-Sep-06 00:59N 37°56' E 023°41'0 0.0
2017-Sep-06 00:29N 37°56' E 023°41'0 0.0
2017-Sep-05 23:59N 37°56' E 023°41'0 0.0
2017-Sep-05 23:29N 37°56' E 023°41'0 0.0
2017-Sep-05 22:59N 37°56' E 023°41'0 0.0
2017-Sep-05 22:26N 37°56' E 023°41'0 0.0
2017-Sep-05 21:59N 37°56' E 023°41'0 0.0
2017-Sep-05 21:29N 37°56' E 023°41'0 0.0
2017-Sep-05 20:59N 37°56' E 023°41'0 0.0
2017-Sep-05 20:26N 37°56' E 023°41'0 0.0
2017-Sep-05 19:59N 37°56' E 023°41'0 0.0
2017-Sep-05 19:29N 37°56' E 023°41'0 0.0
2017-Sep-05 18:56N 37°56' E 023°41'0 0.0
2017-Sep-05 18:29N 37°56' E 023°41'0 0.0
2017-Sep-05 17:59N 37°56' E 023°41'0 0.0
2017-Sep-05 17:29N 37°56' E 023°41'0 0.0
2017-Sep-05 16:59N 37°56' E 023°41'0 0.0
2017-Sep-05 16:23N 37°56' E 023°41'0 0.0
2017-Sep-05 15:44N 37°56' E 023°41'0 0.0
2017-Sep-05 15:26N 37°56' E 023°41'0 0.0
2017-Sep-05 14:59N 37°56' E 023°41'0 0.0
2017-Sep-05 14:29N 37°56' E 023°41'0 0.0
2017-Sep-05 13:59N 37°56' E 023°41'0 0.0
2017-Sep-05 13:26N 37°56' E 023°41'0 0.0
2017-Sep-05 12:56N 37°56' E 023°41'0 0.0
2017-Sep-05 12:26N 37°56' E 023°41'0 0.0
2017-Sep-05 11:56N 37°56' E 023°41'0 0.0
2017-Sep-05 11:29N 37°56' E 023°41'0 0.0
2017-Sep-05 10:56N 37°56' E 023°41'0 0.0
2017-Sep-05 10:29N 37°56' E 023°41'  

Dump ship's entire track history